Blue Oak Ranch Reserve, California Weather observations

Data are for 10 minute period ending at time listed.
 Day   Time   Solar   Ave.   Ave.  Ave.  Vector  Max.   Baro.   Total    
  of    of     Rad.   Air    Rel.  Wind   Wind   Wind  Press.  Precip.   
Year   Day            Temp.  Hum.  Speed  Dir.   Gust                    
2016   (PST)  Kw/m2    F      %     mph   deg.    mph    mb.     in.     
-------------------------------------------------------------------------
 342    5:20   0.00   30.0    94    0.9    38     2.1   950.3    0.00 
 342    5:30   0.00   29.9    94    0.5    97     1.7   950.4    0.00 
 342    5:40   0.00   29.6    94    0.7   294     2.4   950.3    0.00 
 342    5:50   0.00   29.5    94    0.5   306     1.7   950.4    0.00 
 342    6:00   0.00   29.5    94    0.9   302     2.0   950.4    0.00 
 342    6:10   0.00   29.4    94    1.2   307     2.4   950.5    0.00 
 342    6:20   0.00   29.4    94    0.4    10     1.5   950.7    0.00 
 342    6:30   0.00   29.6    94    2.9   281     4.5   950.7    0.00 
 342    6:40   0.00   29.8    93    0.7   299     2.6   950.8    0.00 
 342    6:50   0.00   30.2    93    1.0   308     2.2   950.9    0.00 
 342    7:00   0.00   30.4    92    0.8   349     3.5   950.9    0.00 
 342    7:10   0.01   30.8    91    0.3    18     1.5   951.1    0.00 
 342    7:20   0.01   30.7    90    1.2   344     3.4   951.4    0.00 
 342    7:30   0.03   30.7    92    1.3   277     3.5   951.5    0.00 
 342    7:40   0.03   31.8    91    0.8   309     2.4   951.5    0.00 
 342    7:50   0.04   32.3    91    0.2    91     1.4   951.6    0.00 
 342    8:00   0.05   32.9    91    0.2   284     1.0   951.6    0.00 
 342    8:10   0.07   33.8    89    0.4    74     1.6   951.7    0.00 
 342    8:20   0.10   34.6    89    0.5    87     1.8   951.9    0.00 
 342    8:30   0.13   35.8    88    0.5    90     2.7   952.0    0.00 
 342    8:40   0.09   37.9    88    1.4    91     3.4   952.0    0.00 
 342    8:50   0.06   38.2    87    0.2   141     1.2   952.1    0.00 
 342    9:00   0.07   38.3    86    1.1   237     3.1   952.4    0.00 
 342    9:10   0.07   38.3    84    1.2   254     2.3   952.6    0.00 
 342    9:20   0.07   39.2    81    0.5   270     1.7   952.6    0.00 
 342    9:30   0.07   40.0    82    0.0     0     0.0   952.6    0.00 
 342    9:40   0.07   40.7    79    0.3   274     1.6   952.6    0.00 
 342    9:50   0.15   41.3    79    0.5   212     1.8   952.7    0.00 
 342   10:00   0.20   42.6    75    1.4   261     3.2   952.8    0.00 
 342   10:10   0.16   43.3    74    1.1   172     2.9   952.6    0.00 
 342   10:20   0.32   43.8    74    1.3   216     4.6   952.7    0.00 
 342   10:30   0.29   44.9    70    1.7   230     3.4   952.6    0.00 
 342   10:40   0.53   46.5    68    3.3   281     6.0   952.6    0.00 
 342   10:50   0.53   47.4    65    4.5   245     8.8   952.6    0.00 
 342   11:00   0.41   47.4    66    4.5   243     8.5   952.5    0.00 
 342   11:10   0.44   47.4    66    4.6   234     7.6   952.2    0.00 
 342   11:20   0.40   46.7    66    4.6   237     7.8   952.1    0.00 
 342   11:30   0.46   47.8    62    2.6   243     4.7   951.8    0.00 
 342   11:40   0.36   48.4    62    2.9   264     6.1   951.7    0.00 
 342   11:50   0.30   47.0    66    2.6   234     5.7   951.6    0.00 
 342   12:00   0.30   47.4    66    1.8   252     4.6   951.5    0.00 
 342   12:10   0.36   47.6    66    3.6   268     6.4   951.4    0.00 
 342   12:20   0.31   48.3    64    2.6   271     6.0   951.3    0.00 
 342   12:30   0.29   48.2    66    4.3   265     8.2   951.3    0.00 
 342   12:40   0.23   47.5    68    5.1   274     7.6   951.3    0.00 
 342   12:50   0.17   46.6    69    4.1   267     7.3   951.3    0.00 
 342   13:00   0.17   46.2    71    4.0   274     7.7   951.3    0.00 
 342   13:10   0.11   45.5    73    4.0   268     6.4   951.3    0.00 
 342   13:20   0.13   45.2    74    2.9   265     4.9   951.4    0.00 
 342   13:30   0.10   45.4    74    2.4   246     3.8   951.4    0.00 
 342   13:40   0.13   45.3    75    1.4   232     2.8   951.3    0.00 
 342   13:50   0.27   45.9    75    1.0   240     2.7   951.2    0.00 
 342   14:00   0.19   46.0    75    2.0   167     3.7   951.2    0.00 
 342   14:10   0.15   45.9    75    0.7   100     2.4   951.1    0.00 
 342   14:20   0.11   45.9    75    2.4   146     5.0   951.1    0.00 
 342   14:30   0.12   45.5    76    2.7   149     3.9   951.0    0.00 
 342   14:40   0.11   45.8    75    2.7   190     4.5   951.1    0.01 
 342   14:50   0.11   46.0    73    3.2   144     6.4   951.0    0.00 
 342   15:00   0.10   46.0    70    3.1   151     5.4   951.1    0.00 
 342   15:10   0.08   46.0    70    4.4   152     7.2   951.0    0.00 
 342   15:20   0.06   45.4    71    4.7   158     7.8   951.0    0.00 
 342   15:30   0.07   45.4    72    2.9   157     6.5   951.1    0.00 
 342   15:40   0.09   45.1    74    3.8   154     7.1   951.1    0.00 
 342   15:50   0.08   45.1    74    3.4   146     6.8   951.1    0.00 
 342   16:00   0.06   45.1    73    3.6   145     7.9   951.0    0.00 
 342   16:10   0.06   44.9    72    4.2   147     8.6   951.0    0.00 
 342   16:20   0.04   44.7    72    3.9   151     7.5   951.0    0.00 
 342   16:30   0.04   44.5    72    3.2   153     5.7   951.0    0.00 
 342   16:40   0.02   44.5    74    2.8   138     4.9   950.9    0.00 
 342   16:50   0.01   44.4    74    2.5   138     5.8   950.9    0.00 
 342   17:00   0.00   44.2    74    2.7   147     6.4   950.9    0.00 
 342   17:10   0.00   44.1    74    2.2   167     6.3   951.0    0.00 
 342   17:20   0.00   44.0    73    3.5   152     6.9   950.9    0.00 
 342   17:30   0.00   43.9    73    2.1   132     5.6   950.9    0.00 
 342   17:40   0.00   44.0    74    1.2   118     2.9   950.9    0.00 
 342   17:50   0.00   43.9    74    1.3   110     2.5   950.9    0.00 
 342   18:00   0.00   44.1    72    1.5   134     6.6   950.9    0.00 
 342   18:10   0.00   44.1    71    2.0   129     3.9   950.9    0.00 
 342   18:20   0.00   44.3    64    3.0   107     8.6   950.9    0.00 
 342   18:30   0.00   45.0    55    2.3   113     4.6   951.0    0.00 
 342   18:40   0.00   45.6    55    2.9   126     7.9   951.1    0.00 
 342   18:50   0.00   45.6    57    2.0    96     3.8   951.1    0.00 
 342   19:00   0.00   45.8    58    2.1    86     5.0   951.2    0.00 
 342   19:10   0.00   45.9    58    3.1   113     7.5   951.2    0.00 
 342   19:20   0.00   45.9    57    3.3    96     6.9   951.2    0.00 
 342   19:30   0.00   45.9    57    3.8    95     9.6   951.0    0.00 
 342   19:40   0.00   45.6    59    3.3   107     7.2   951.0    0.00 
 342   19:50   0.00   45.3    60    3.3    94     8.2   950.8    0.00 
 342   20:00   0.00   45.5    62    3.2    91     6.7   950.8    0.00 
 342   20:10   0.00   45.9    65    2.8   107     7.6   950.8    0.00 
 342   20:20   0.00   46.2    64    2.4   124     8.5   950.7    0.00 
 342   20:30   0.00   46.3    63    2.9   115     6.6   950.6    0.00 
 342   20:40   0.00   46.2    64    4.4   106    10.8   950.5    0.00 
 342   20:50   0.00   45.9    68    4.0   117     9.8   950.7    0.00 
 342   21:00   0.00   45.2    73    2.2   110     6.7   950.8    0.01 
 342   21:10   0.00   44.8    75    1.1   142     3.8   950.9    0.00 
 342   21:20   0.00   44.2    80    2.3   113     5.6   950.9    0.00 
 342   21:30   0.00   43.8    83    1.5   151     4.4   951.0    0.01 
 342   21:40   0.00   43.2    85    1.1   138     3.9   951.1    0.01 
 342   21:50   0.00   42.8    88    3.3    89     7.7   951.1    0.02 
 342   22:00   0.00   42.7    89    2.7   121     6.0   951.2    0.02 
 342   22:10   0.00   42.5    90    2.0   116     8.0   951.2    0.01 
 342   22:20   0.00   42.4    90    2.8   134     5.6   951.3    0.00 
 342   22:30   0.00   42.6    91    3.3   120     8.1   951.2    0.01 
 342   22:40   0.00   43.0    90    3.1   116    10.7   950.9    0.00 
 342   22:50   0.00   43.2    90    3.4   166     7.6   950.8    0.00 
 342   23:00   0.00   43.2    90    2.2   176     6.6   950.7    0.00 
 342   23:10   0.00   42.9    90    4.0   165    10.4   950.7    0.00 
 342   23:20   0.00   43.0    91    4.8   147    12.0   950.6    0.00 
 342   23:30   0.00   43.9    90    2.8   141     7.6   950.5    0.00 
 342   23:40   0.00   44.1    90    2.7   141     8.8   950.4    0.01 
 342   23:50   0.00   44.5    90    3.2   138     7.5   950.4    0.00 
 343    0:00   0.00   44.9    91    2.4   135     8.3   950.4    0.01 
 343    0:10   0.00   45.3    91    1.6   187     4.2   950.3    0.01 
 343    0:20   0.00   45.4    91    3.9   142    11.6   950.1    0.01 
 343    0:30   0.00   45.4    92    2.8   134     7.3   950.0    0.01 
 343    0:40   0.00   45.4    92    2.4   158     8.6   950.0    0.01 
 343    0:50   0.00   45.0    92    3.4   148     8.5   950.0    0.00 
 343    1:00   0.00   44.9    93    5.0   131    11.5   950.0    0.00 
 343    1:10   0.00   44.7    93    3.6   140     9.3   949.9    0.01 
 343    1:20   0.00   44.6    93    4.6   164     9.9   949.9    0.00 
 343    1:30   0.00   44.7    92    3.8   142     9.1   949.8    0.00 
 343    1:40   0.00   44.6    92    3.5   169     8.6   949.8    0.00 
 343    1:50   0.00   44.4    92    2.9   141     9.9   949.8    0.00 
 343    2:00   0.00   44.5    93    2.0   182     5.0   949.9    0.00 
 343    2:10   0.00   44.7    93    1.3   154     4.2   949.9    0.00 
 343    2:20   0.00   44.8    93    1.4   148     4.5   950.0    0.01 
 343    2:30   0.00   44.6    94    1.2   114     4.2   950.0    0.05 
 343    2:40   0.00   44.9    94    1.4   145     4.5   950.0    0.03 
 343    2:50   0.00   45.6    95    2.2    92     5.8   950.0    0.03 
 343    3:00   0.00   46.2    95    1.3   128     4.2   950.0    0.00 
 343    3:10   0.00   46.3    94    2.0    99     6.4   950.0    0.00 
 343    3:20   0.00   46.7    94    1.6   105     4.2   950.0    0.00 
 343    3:30   0.00   46.9    94    0.7   166     3.8   950.0    0.00 
 343    3:40   0.00   47.5    94    2.0   114     4.7   949.9    0.00 
 343    3:50   0.00   47.4    93    2.1   107     5.6   949.9    0.00 
 343    4:00   0.00   47.6    93    2.0   137     6.9   949.9    0.01 
 343    4:10   0.00   47.7    93    1.9   110     8.3   949.9    0.00 
 343    4:20   0.00   47.5    93    1.8   127     5.0   949.8    0.00 
 343    4:30   0.00   47.9    93    1.6   110     6.0   949.7    0.00 
 343    4:40   0.00   48.2    93    2.6   129     6.6   949.7    0.01 
 343    4:50   0.00   48.2    93    1.4   177     6.1   949.7    0.00 
 343    5:00   0.00   48.0    93    1.5   169     5.4   949.8    0.01 
 343    5:10   0.00   48.1    93    1.2   172     4.2   949.9    0.02 

Return to Blue Oak Ranch Reserve graphs page.


Western Regional Climate Center,wrcc@dri.edu